TimeCST,TemperatureF,Dew PointF,Humidity,Sea Level PressureIn,VisibilityMPH,Wind Direction,Wind SpeedMPH,Gust SpeedMPH,PrecipitationIn,Events,Conditions,WindDirDegrees,DateUTC
12:53 AM,32.0,24.1,73,30.33,10.0,NNE,9.2,-,N/A,,Overcast,30,2013-03-07 06:53:00
1:53 AM,32.0,24.1,73,30.33,10.0,NNE,6.9,-,N/A,,Overcast,20,2013-03-07 07:53:00
2:53 AM,32.0,24.1,73,30.33,10.0,North,9.2,-,N/A,,Overcast,10,2013-03-07 08:53:00
3:53 AM,30.9,24.1,76,30.33,10.0,North,10.4,-,N/A,,Overcast,10,2013-03-07 09:53:00
4:53 AM,30.9,24.1,76,30.35,10.0,NE,8.1,-,N/A,,Overcast,50,2013-03-07 10:53:00
5:53 AM,30.9,24.1,76,30.37,10.0,North,8.1,-,N/A,,Overcast,10,2013-03-07 11:53:00
6:53 AM,30.9,24.1,76,30.40,10.0,North,5.8,-,N/A,,Overcast,10,2013-03-07 12:53:00
7:53 AM,32.0,24.1,73,30.41,10.0,NNE,8.1,-,N/A,,Overcast,20,2013-03-07 13:53:00
8:53 AM,33.1,24.1,70,30.41,10.0,ENE,9.2,-,N/A,,Overcast,70,2013-03-07 14:53:00
9:53 AM,34.0,25.0,70,30.40,10.0,NNE,5.8,-,N/A,,Overcast,30,2013-03-07 15:53:00
10:53 AM,35.1,25.0,67,30.40,10.0,NE,3.5,-,N/A,,Overcast,50,2013-03-07 16:53:00
11:53 AM,37.4,24.8,60,30.39,10.0,NNE,6.9,-,N/A,,Overcast,30,2013-03-07 17:53:00
12:53 PM,37.9,26.1,62,30.38,10.0,Variable,5.8,-,N/A,,Overcast,0,2013-03-07 18:53:00
1:53 PM,41.0,26.1,55,30.37,10.0,NNE,11.5,-,N/A,,Mostly Cloudy,20,2013-03-07 19:53:00
2:46 PM,42.8,26.6,53,30.35,10.0,NE,4.6,-,N/A,,Scattered Clouds,50,2013-03-07 20:46:00
2:53 PM,42.1,26.1,53,30.36,10.0,NE,6.9,-,N/A,,Scattered Clouds,40,2013-03-07 20:53:00
3:53 PM,42.1,27.0,55,30.36,10.0,NE,9.2,-,N/A,,Scattered Clouds,40,2013-03-07 21:53:00
4:53 PM,41.0,26.1,55,30.36,10.0,NNE,5.8,-,N/A,,Partly Cloudy,20,2013-03-07 22:53:00
5:53 PM,37.0,26.1,65,30.37,10.0,East,5.8,-,N/A,,Clear,100,2013-03-07 23:53:00
6:53 PM,36.0,26.1,67,30.38,10.0,East,6.9,-,N/A,,Clear,100,2013-03-08 00:53:00
7:53 PM,34.0,26.1,73,30.38,10.0,East,4.6,-,N/A,,Clear,80,2013-03-08 01:53:00
8:53 PM,33.1,25.0,72,30.38,10.0,Calm,Calm,-,N/A,,Clear,0,2013-03-08 02:53:00
9:53 PM,32.0,26.1,79,30.38,10.0,ENE,4.6,-,N/A,,Clear,60,2013-03-08 03:53:00
10:53 PM,32.0,25.0,75,30.37,10.0,East,3.5,-,N/A,,Clear,80,2013-03-08 04:53:00
11:53 PM,30.0,24.1,79,30.36,10.0,ENE,4.6,-,N/A,,Clear,60,2013-03-08 05:53:00